Time;durP1;ratioP1;P1;durP2;ratioP2;P2;SDS_P1;SDS_P2;PMS_P1;PMS_P2;Temp;Humidity;BMP_temperature;BMP_pressure;BME280_temperature;BME280_humidity;BME280_pressure;Samples;Min_cycle;Max_cycle;Signal;HPM_P1;HPM_P2
2021/11/12 00:12:47;;;;;;;112.00;33.72;;;;;;;;;;5071701;28;20484;-88
2021/11/12 00:15:14;;;;;;;117.28;30.55;;;;;;;;;;5059108;28;20084;-88
2021/11/12 00:17:42;;;;;;;115.90;32.13;;;;;;;;;;5061695;28;20136;-88
2021/11/12 00:20:09;;;;;;;132.68;33.20;;;;;;;;;;5053791;28;20520;-87
2021/11/12 00:22:36;;;;;;;123.45;31.70;;;;;;;;;;5072331;28;20117;-88
2021/11/12 00:25:04;;;;;;;125.80;33.67;;;;;;;;;;5071452;28;20735;-88
2021/11/12 00:27:33;;;;;;;126.18;33.63;;;;;;;;;;5049661;28;20037;-88
2021/11/12 00:30:09;;;;;;;124.18;32.13;;;;;;;;;;5051315;28;20091;-88
2021/11/12 00:32:52;;;;;;;131.70;33.75;;;;;;;;;;5068390;28;20044;-88
2021/11/12 00:35:26;;;;;;;120.35;31.98;;;;;;;;;;5071741;28;20087;-88
2021/11/12 00:38:13;;;;;;;115.68;32.35;;;;;;;;;;5071893;28;20044;-87
2021/11/12 00:40:51;;;;;;;131.90;34.70;;;;;;;;;;5052087;28;20475;-88
2021/11/12 00:43:31;;;;;;;123.35;33.47;;;;;;;;;;5034110;28;20136;-88
2021/11/12 00:48:48;;;;;;;135.30;33.42;;;;;;;;;;5067714;28;20090;-88
2021/11/12 00:51:26;;;;;;;138.85;35.85;;;;;;;;;;5050001;28;20045;-88
2021/11/12 00:56:23;;;;;;;130.40;34.05;;;;;;;;;;5068022;28;20080;-87
2021/11/12 00:58:51;;;;;;;126.57;34.83;;;;;;;;;;5054017;28;20061;-88
2021/11/12 01:01:19;;;;;;;134.63;34.65;;;;;;;;;;5053535;28;20088;-88
2021/11/12 01:03:47;;;;;;;125.15;33.97;;;;;;;;;;5052128;28;20083;-87
2021/11/12 01:06:23;;;;;;;127.82;34.80;;;;;;;;;;5036194;28;20072;-87
2021/11/12 01:08:51;;;;;;;122.97;33.58;;;;;;;;;;5055640;28;20465;-88
2021/11/12 01:11:19;;;;;;;128.40;34.80;;;;;;;;;;5056052;28;20699;-88
2021/11/12 01:13:48;;;;;;;118.13;31.73;;;;;;;;;;5075074;28;20103;-88
2021/11/12 01:16:16;;;;;;;126.07;33.85;;;;;;;;;;5055591;28;20045;-87
2021/11/12 01:18:43;;;;;;;127.85;34.15;;;;;;;;;;5075430;28;20135;-88
2021/11/12 01:21:13;;;;;;;118.47;34.13;;;;;;;;;;5061286;28;20413;-87
2021/11/12 01:23:42;;;;;;;149.05;35.38;;;;;;;;;;5057157;28;20086;-88
2021/11/12 01:26:10;;;;;;;121.45;32.63;;;;;;;;;;5075438;28;20044;-88
2021/11/12 01:28:38;;;;;;;145.77;35.45;;;;;;;;;;5037876;28;20536;-88
2021/11/12 01:31:05;;;;;;;119.47;33.13;;;;;;;;;;5056929;28;20132;-88
2021/11/12 01:33:34;;;;;;;111.78;32.90;;;;;;;;;;5075635;28;20128;-88
2021/11/12 01:36:19;;;;;;;144.73;34.53;;;;;;;;;;5075434;28;20079;-88
2021/11/12 01:38:47;;;;;;;;;;;;;;;;;;5057222;28;20052;-88
2021/11/12 01:41:15;;;;;;;126.72;32.95;;;;;;;;;;5074320;28;19920;-88
2021/11/12 01:43:45;;;;;;;131.50;33.75;;;;;;;;;;5074782;28;20124;-88
2021/11/12 01:53:56;;;;;;;123.10;33.72;;;;;;;;;;5075198;28;20098;-87
2021/11/12 01:59:13;;;;;;;107.75;30.85;;;;;;;;;;5054732;28;20083;-88
2021/11/12 02:01:46;;;;;;;109.70;33.20;;;;;;;;;;5046289;28;20056;-88
2021/11/12 02:04:22;;;;;;;117.82;32.08;;;;;;;;;;5057267;28;20479;-88
2021/11/12 02:06:50;;;;;;;130.43;36.25;;;;;;;;;;5071738;28;20128;-88
2021/11/12 02:09:19;;;;;;;129.13;34.65;;;;;;;;;;5062554;28;20127;-87
2021/11/12 02:11:48;;;;;;;126.93;34.67;;;;;;;;;;5047904;28;20047;-88
2021/11/12 02:14:16;;;;;;;127.60;33.95;;;;;;;;;;5054698;28;20091;-88
2021/11/12 02:16:53;;;;;;;125.13;33.58;;;;;;;;;;5058253;28;20048;-88
2021/11/12 02:19:21;;;;;;;138.70;35.92;;;;;;;;;;5074417;28;20095;-88
2021/11/12 02:21:54;;;;;;;120.10;33.60;;;;;;;;;;5073873;28;20087;-88
2021/11/12 02:24:21;;;;;;;125.22;35.00;;;;;;;;;;5051067;28;20080;-87
2021/11/12 02:26:55;;;;;;;133.13;35.30;;;;;;;;;;5063089;28;20130;-88
2021/11/12 02:29:25;;;;;;;134.88;33.53;;;;;;;;;;5074128;28;20048;-88
2021/11/12 02:31:53;;;;;;;138.45;34.97;;;;;;;;;;5074226;28;20040;-87
2021/11/12 02:34:21;;;;;;;128.48;37.63;;;;;;;;;;5073440;28;20477;-88
2021/11/12 02:36:48;;;;;;;126.43;34.33;;;;;;;;;;5073993;28;20806;-88
2021/11/12 02:39:15;;;;;;;134.23;36.30;;;;;;;;;;5055878;28;20405;-88
2021/11/12 02:41:43;;;;;;;140.70;36.00;;;;;;;;;;5047834;28;20084;-87
2021/11/12 02:44:11;;;;;;;127.68;36.83;;;;;;;;;;5053914;28;20132;-88
2021/11/12 02:46:38;;;;;;;142.45;36.67;;;;;;;;;;5057131;28;20072;-88
2021/11/12 02:49:05;;;;;;;139.75;37.20;;;;;;;;;;5073171;28;20074;-88
2021/11/12 02:51:35;;;;;;;129.80;36.83;;;;;;;;;;5073801;28;20040;-87
2021/11/12 02:54:04;;;;;;;134.10;36.10;;;;;;;;;;5073564;28;20479;-87
2021/11/12 02:56:32;;;;;;;140.95;36.40;;;;;;;;;;5065722;28;20389;-75
2021/11/12 02:59:01;;;;;;;123.57;35.05;;;;;;;;;;5029819;28;20053;-75
2021/11/12 03:01:29;;;;;;;138.70;36.65;;;;;;;;;;5051268;28;20083;-75
2021/11/12 03:03:57;;;;;;;116.70;33.05;;;;;;;;;;5067239;28;20044;-75
2021/11/12 03:06:25;;;;;;;121.60;34.85;;;;;;;;;;5067481;28;20546;-75
2021/11/12 03:08:55;;;;;;;142.68;36.47;;;;;;;;;;5032905;28;20068;-75
2021/11/12 03:11:22;;;;;;;118.75;32.53;;;;;;;;;;5067655;28;20068;-75
2021/11/12 03:13:49;;;;;;;129.35;33.83;;;;;;;;;;5066506;28;20075;-74
2021/11/12 03:16:17;;;;;;;124.38;32.88;;;;;;;;;;5047602;28;20076;-75
2021/11/12 03:18:45;;;;;;;114.38;34.33;;;;;;;;;;5048568;28;20380;-75
2021/11/12 03:21:16;;;;;;;114.50;33.03;;;;;;;;;;5034004;28;20175;-75
2021/11/12 03:24:08;;;;;;;126.00;34.65;;;;;;;;;;5047553;28;20084;-74
2021/11/12 03:26:38;;;;;;;119.20;32.95;;;;;;;;;;5047425;28;20510;-75
2021/11/12 04:01:59;;;;;;;129.95;35.50;;;;;;;;;;5056783;28;20056;-75
2021/11/12 04:04:37;;;;;;;141.63;36.00;;;;;;;;;;5062684;28;20137;-75
2021/11/12 04:17:13;;;;;;;129.57;34.05;;;;;;;;;;5046766;28;20084;-74
2021/11/12 04:18:57;;;;;;;138.57;33.83;;;;;;;;;;5065179;28;19931;-74
2021/11/12 04:30:42;;;;;;;;;;;;;;;;;;5067135;28;20119;-75
2021/11/12 04:41:01;;;;;;;137.65;34.70;;;;;;;;;;4984308;28;20396;-75
2021/11/12 05:13:50;;;;;;;132.15;32.47;;;;;;;;;;5063374;28;20136;-75
2021/11/12 05:25:59;;;;;;;135.38;32.42;;;;;;;;;;5064034;28;20059;-74
2021/11/12 05:44:14;;;;;;;;;;;;;;;;;;5069811;28;20092;-74
2021/11/12 05:57:11;;;;;;;122.88;30.85;;;;;;;;;;5049802;28;20383;-74
2021/11/12 05:59:38;;;;;;;131.15;33.28;;;;;;;;;;5048878;28;20651;-74
2021/11/12 06:02:06;;;;;;;135.43;32.40;;;;;;;;;;5050884;28;20048;-75
2021/11/12 06:04:34;;;;;;;117.88;29.77;;;;;;;;;;5067772;28;20485;-74
2021/11/12 06:07:01;;;;;;;136.60;32.08;;;;;;;;;;5049286;28;20136;-75
2021/11/12 06:09:29;;;;;;;132.40;31.30;;;;;;;;;;5051311;28;20049;-75
2021/11/12 06:11:56;;;;;;;133.38;31.67;;;;;;;;;;5055008;28;20127;-74
2021/11/12 06:14:24;;;;;;;136.40;32.70;;;;;;;;;;5050947;28;20159;-74
2021/11/12 06:16:52;;;;;;;133.68;31.38;;;;;;;;;;5068427;28;20139;-74
2021/11/12 06:19:19;;;;;;;139.38;31.77;;;;;;;;;;5068581;28;20110;-74
2021/11/12 06:21:46;;;;;;;134.70;32.67;;;;;;;;;;5066526;28;20076;-75
2021/11/12 06:24:13;;;;;;;115.75;30.60;;;;;;;;;;5068142;28;20504;-75
2021/11/12 06:26:41;;;;;;;121.68;31.70;;;;;;;;;;5036570;28;20067;-74
2021/11/12 06:29:09;;;;;;;115.85;30.55;;;;;;;;;;5048969;28;20267;-74
2021/11/12 06:31:36;;;;;;;108.00;30.42;;;;;;;;;;5050443;28;20080;-74
2021/11/12 06:34:04;;;;;;;127.13;32.90;;;;;;;;;;5043338;28;20161;-75
2021/11/12 06:36:31;;;;;;;132.07;31.48;;;;;;;;;;5048068;28;20144;-74
2021/11/12 06:38:59;;;;;;;126.97;30.58;;;;;;;;;;5047039;28;20071;-86
2021/11/12 06:42:17;;;;;;;121.97;31.60;;;;;;;;;;5052024;28;20132;-85
2021/11/12 06:49:36;;;;;;;105.28;28.50;;;;;;;;;;5070537;28;20057;-75
2021/11/12 06:52:04;;;;;;;110.78;27.48;;;;;;;;;;5067433;28;20681;-74
2021/11/12 06:54:32;;;;;;;105.78;27.48;;;;;;;;;;5057248;28;20191;-74
2021/11/12 06:56:59;;;;;;;104.90;28.65;;;;;;;;;;5067297;28;20049;-74
2021/11/12 06:59:26;;;;;;;104.05;29.52;;;;;;;;;;5066684;28;20502;-74
2021/11/12 07:01:53;;;;;;;108.32;28.17;;;;;;;;;;5049852;28;20048;-74
2021/11/12 07:04:21;;;;;;;94.88;28.13;;;;;;;;;;5065001;28;20056;-74
2021/11/12 07:06:48;;;;;;;96.53;26.83;;;;;;;;;;5030021;28;20056;-74
2021/11/12 07:09:16;;;;;;;102.45;27.63;;;;;;;;;;5056213;28;20056;-75
2021/11/12 07:11:43;;;;;;;89.50;26.77;;;;;;;;;;5030516;28;20064;-73
2021/11/12 07:14:11;;;;;;;91.75;28.23;;;;;;;;;;5046439;28;20045;-74
2021/11/12 07:16:39;;;;;;;84.22;25.08;;;;;;;;;;5049275;28;20135;-75
2021/11/12 07:19:06;;;;;;;104.97;27.45;;;;;;;;;;5050912;28;20068;-86
2021/11/12 07:21:33;;;;;;;85.32;25.33;;;;;;;;;;5055644;28;20084;-85
2021/11/12 07:24:01;;;;;;;82.03;25.55;;;;;;;;;;5053225;28;20049;-86
2021/11/12 07:26:30;;;;;;;98.68;25.60;;;;;;;;;;5053114;28;20049;-86
2021/11/12 07:28:57;;;;;;;89.93;25.75;;;;;;;;;;5053235;28;20045;-86
2021/11/12 07:31:41;;;;;;;85.07;26.33;;;;;;;;;;5062201;28;20040;-86
2021/11/12 07:34:08;;;;;;;89.95;28.02;;;;;;;;;;5072926;28;20049;-86
2021/11/12 07:36:37;;;;;;;75.82;24.60;;;;;;;;;;5043270;28;20090;-86
2021/11/12 07:39:38;;;;;;;82.85;26.10;;;;;;;;;;5054670;28;20147;-86
2021/11/12 07:47:16;;;;;;;79.13;24.27;;;;;;;;;;5060802;28;20044;-86
2021/11/12 07:49:46;;;;;;;87.63;23.83;;;;;;;;;;5071766;28;20093;-86
2021/11/12 07:52:14;;;;;;;80.38;22.08;;;;;;;;;;5054338;28;20074;-86
2021/11/12 07:54:41;;;;;;;67.50;21.10;;;;;;;;;;5072955;28;20083;-86
2021/11/12 07:57:09;;;;;;;62.63;20.75;;;;;;;;;;5054913;28;20080;-86
2021/11/12 07:59:37;;;;;;;69.57;22.60;;;;;;;;;;5073004;28;20045;-86
2021/11/12 08:02:06;;;;;;;66.78;20.20;;;;;;;;;;5072502;28;20041;-86
2021/11/12 08:04:35;;;;;;;55.97;18.85;;;;;;;;;;5066276;28;20123;-84
2021/11/12 08:07:02;;;;;;;49.58;17.38;;;;;;;;;;5056505;28;20044;-85
2021/11/12 08:09:48;;;;;;;61.80;18.50;;;;;;;;;;5071684;28;20533;-85
2021/11/12 08:18:25;;;;;;;45.90;14.65;;;;;;;;;;5033379;28;20127;-86
2021/11/12 08:34:15;;;;;;;34.17;11.52;;;;;;;;;;5071827;28;20055;-86
2021/11/12 08:41:58;;;;;;;39.10;11.20;;;;;;;;;;5049593;28;20059;-86
2021/11/12 08:44:35;;;;;;;38.58;9.85;;;;;;;;;;5051000;28;20080;-74
2021/11/12 08:47:12;;;;;;;29.60;9.27;;;;;;;;;;5040210;28;20128;-74
2021/11/12 08:49:42;;;;;;;36.20;9.55;;;;;;;;;;5047623;28;20135;-74
2021/11/12 08:52:10;;;;;;;31.90;8.93;;;;;;;;;;5065688;28;20063;-75
2021/11/12 08:54:42;;;;;;;29.95;9.52;;;;;;;;;;5044203;28;20705;-74
2021/11/12 08:57:11;;;;;;;31.65;8.95;;;;;;;;;;5046994;28;20052;-86
2021/11/12 08:59:40;;;;;;;34.22;10.32;;;;;;;;;;5051824;28;20053;-85
2021/11/12 09:02:13;;;;;;;26.05;8.18;;;;;;;;;;5064564;28;20656;-86
2021/11/12 09:04:42;;;;;;;26.40;7.82;;;;;;;;;;5066048;28;20799;-85
2021/11/12 09:07:11;;;;;;;28.80;8.65;;;;;;;;;;5071783;28;20460;-84
2021/11/12 09:09:39;;;;;;;35.88;9.35;;;;;;;;;;5069705;28;20108;-84
2021/11/12 09:12:08;;;;;;;26.38;8.63;;;;;;;;;;5051684;28;20080;-84
2021/11/12 09:14:39;;;;;;;29.73;8.40;;;;;;;;;;5060800;28;20572;-85
2021/11/12 09:17:08;;;;;;;28.20;8.32;;;;;;;;;;5071551;28;20091;-85
2021/11/12 09:19:44;;;;;;;29.08;9.00;;;;;;;;;;5053610;28;20401;-85
2021/11/12 09:22:20;;;;;;;41.53;9.77;;;;;;;;;;5063029;28;20128;-85
2021/11/12 09:24:48;;;;;;;24.80;7.68;;;;;;;;;;5046355;28;20063;-74
2021/11/12 09:27:17;;;;;;;21.92;7.60;;;;;;;;;;5057257;28;20124;-74
2021/11/12 09:29:44;;;;;;;23.10;8.82;;;;;;;;;;5065295;28;20048;-74
2021/11/12 09:32:12;;;;;;;24.13;7.60;;;;;;;;;;5062922;28;20127;-74
2021/11/12 09:34:39;;;;;;;22.63;7.18;;;;;;;;;;5050489;28;20052;-75
2021/11/12 09:37:12;;;;;;;21.70;8.20;;;;;;;;;;5068643;28;20092;-75
2021/11/12 09:39:40;;;;;;;26.35;8.10;;;;;;;;;;5066564;28;20052;-74
2021/11/12 09:42:09;;;;;;;30.63;9.25;;;;;;;;;;5054397;28;20111;-74
2021/11/12 09:44:37;;;;;;;24.52;9.00;;;;;;;;;;5050199;28;20158;-74
2021/11/12 09:47:05;;;;;;;22.10;8.82;;;;;;;;;;5068549;28;20488;-74
2021/11/12 09:49:32;;;;;;;24.27;8.60;;;;;;;;;;5067343;28;20573;-74
2021/11/12 09:52:00;;;;;;;24.63;7.10;;;;;;;;;;5058231;28;20127;-74
2021/11/12 09:54:27;;;;;;;23.10;7.32;;;;;;;;;;5051281;28;20091;-74
2021/11/12 09:56:54;;;;;;;24.38;8.38;;;;;;;;;;5061695;28;20098;-74
2021/11/12 09:59:21;;;;;;;19.63;7.35;;;;;;;;;;5069442;28;20106;-74
2021/11/12 10:01:49;;;;;;;25.48;8.23;;;;;;;;;;5042501;28;20135;-74
2021/11/12 10:04:16;;;;;;;18.63;7.00;;;;;;;;;;5069840;28;20060;-74
2021/11/12 10:06:45;;;;;;;16.52;6.43;;;;;;;;;;5068705;28;20052;-74
2021/11/12 10:09:13;;;;;;;19.05;7.15;;;;;;;;;;5047792;28;20049;-74
2021/11/12 10:11:46;;;;;;;19.33;7.18;;;;;;;;;;5049144;28;20140;-74
2021/11/12 10:14:26;;;;;;;22.10;7.03;;;;;;;;;;5049645;28;20615;-74
2021/11/12 10:16:55;;;;;;;24.23;7.68;;;;;;;;;;5051128;28;20133;-74
2021/11/12 10:19:24;;;;;;;17.38;7.70;;;;;;;;;;5067741;28;20485;-74
2021/11/12 10:21:53;;;;;;;21.75;8.20;;;;;;;;;;5058936;28;20057;-74
2021/11/12 10:24:30;;;;;;;23.95;8.45;;;;;;;;;;5053996;28;20628;-74
2021/11/12 10:27:08;;;;;;;24.42;8.40;;;;;;;;;;5052377;28;20494;-84
2021/11/12 10:29:40;;;;;;;32.58;10.07;;;;;;;;;;5055731;28;20063;-85
2021/11/12 10:32:09;;;;;;;32.55;10.98;;;;;;;;;;5074401;28;20127;-85
2021/11/12 10:34:38;;;;;;;24.50;9.65;;;;;;;;;;5056027;28;20044;-85
2021/11/12 10:37:06;;;;;;;24.05;9.57;;;;;;;;;;5069743;28;20075;-74
2021/11/12 10:39:38;;;;;;;20.50;9.13;;;;;;;;;;5031460;28;20084;-75
2021/11/12 10:42:08;;;;;;;25.95;10.15;;;;;;;;;;5068911;28;20056;-74
2021/11/12 10:44:40;;;;;;;22.42;9.27;;;;;;;;;;5066942;28;20547;-74
2021/11/12 10:47:08;;;;;;;27.00;10.73;;;;;;;;;;5051723;28;20080;-74
2021/11/12 10:49:38;;;;;;;21.40;10.18;;;;;;;;;;5049086;28;20122;-74
2021/11/12 10:52:10;;;;;;;18.38;9.05;;;;;;;;;;5058495;28;20083;-74
2021/11/12 10:54:42;;;;;;;19.48;9.18;;;;;;;;;;5048887;28;20566;-74
2021/11/12 10:57:11;;;;;;;27.58;10.07;;;;;;;;;;5050318;28;20053;-74
2021/11/12 10:59:53;;;;;;;18.88;9.27;;;;;;;;;;5066094;28;20080;-74
2021/11/12 11:02:21;;;;;;;22.50;9.65;;;;;;;;;;5062361;28;20540;-75
2021/11/12 11:04:59;;;;;;;20.02;9.55;;;;;;;;;;5066943;28;20126;-75
2021/11/12 11:07:26;;;;;;;17.63;9.05;;;;;;;;;;5047784;28;20053;-74
2021/11/12 11:09:56;;;;;;;26.67;9.05;;;;;;;;;;5033192;28;20044;-75
2021/11/12 11:12:40;;;;;;;26.67;10.00;;;;;;;;;;5068069;28;20079;-75
2021/11/12 11:15:10;;;;;;;23.63;8.88;;;;;;;;;;5049873;28;20059;-75
2021/11/12 11:17:41;;;;;;;27.63;8.43;;;;;;;;;;5067595;28;20148;-75
2021/11/12 11:20:10;;;;;;;14.55;8.20;;;;;;;;;;5064573;28;20724;-74
2021/11/12 11:22:44;;;;;;;14.60;7.70;;;;;;;;;;5067682;28;20148;-75
2021/11/12 11:25:12;;;;;;;21.27;8.82;;;;;;;;;;5066932;28;20163;-74
2021/11/12 11:27:54;;;;;;;20.85;8.05;;;;;;;;;;5041217;28;20052;-74
2021/11/12 11:30:22;;;;;;;18.73;8.43;;;;;;;;;;5059545;28;20160;-74
2021/11/12 11:32:49;;;;;;;23.65;8.18;;;;;;;;;;5064487;28;20060;-75
2021/11/12 11:35:17;;;;;;;20.45;8.57;;;;;;;;;;5042394;28;20052;-75
2021/11/12 11:37:44;;;;;;;15.90;8.52;;;;;;;;;;5050347;28;20081;-85
2021/11/12 11:40:15;;;;;;;18.30;7.13;;;;;;;;;;5058161;28;20095;-85
2021/11/12 11:42:43;;;;;;;16.00;7.82;;;;;;;;;;5071155;28;20065;-85
2021/11/12 11:45:12;;;;;;;17.17;8.02;;;;;;;;;;5052042;28;20084;-85
2021/11/12 11:47:42;;;;;;;14.80;6.63;;;;;;;;;;5053916;28;20048;-85
2021/11/12 11:50:19;;;;;;;15.73;6.78;;;;;;;;;;5070947;28;20124;-84
2021/11/12 11:52:46;;;;;;;10.63;5.60;;;;;;;;;;5053701;28;20123;-84
2021/11/12 11:55:30;;;;;;;8.70;4.38;;;;;;;;;;5071684;28;20074;-84
2021/11/12 11:58:17;;;;;;;14.52;4.65;;;;;;;;;;5072389;28;20072;-85
2021/11/12 12:00:44;;;;;;;10.25;4.47;;;;;;;;;;5054431;28;20455;-85
2021/11/12 12:03:21;;;;;;;10.45;3.92;;;;;;;;;;5054233;28;20055;-85
2021/11/12 12:06:07;;;;;;;11.75;4.28;;;;;;;;;;5060742;28;20084;-85
2021/11/12 12:08:35;;;;;;;7.43;3.80;;;;;;;;;;5051867;28;20056;-84
2021/11/12 12:11:16;;;;;;;8.70;4.50;;;;;;;;;;5034029;28;20053;-85
2021/11/12 12:13:43;;;;;;;8.48;4.47;;;;;;;;;;5034041;28;20041;-85
2021/11/12 12:16:10;;;;;;;11.20;4.60;;;;;;;;;;5054639;28;20045;-84
2021/11/12 12:18:48;;;;;;;9.48;4.15;;;;;;;;;;5064737;28;20055;-75
2021/11/12 12:32:53;;;;;;;;;;;;;;;;;;5061963;28;20721;-74
2021/11/12 12:35:36;;;;;;;9.50;2.80;;;;;;;;;;5049957;28;19924;-74
2021/11/12 12:38:46;;;;;;;6.53;3.40;;;;;;;;;;5046628;28;20099;-74
2021/11/12 12:41:53;;;;;;;10.25;3.30;;;;;;;;;;5058899;28;20067;-74
2021/11/12 13:20:57;;;;;;;20.33;6.10;;;;;;;;;;5068386;28;20163;-74
2021/11/12 13:25:56;;;;;;;20.85;6.57;;;;;;;;;;5050115;28;20076;-74
2021/11/12 13:28:26;;;;;;;16.20;6.25;;;;;;;;;;5051077;28;20135;-74
2021/11/12 13:30:54;;;;;;;11.93;5.38;;;;;;;;;;5051644;28;20087;-74
2021/11/12 13:33:25;;;;;;;18.83;5.93;;;;;;;;;;5068343;28;20052;-74
2021/11/12 13:35:52;;;;;;;19.23;6.65;;;;;;;;;;5068220;28;20143;-74
2021/11/12 13:38:20;;;;;;;16.00;6.07;;;;;;;;;;5054704;28;20048;-74
2021/11/12 13:40:47;;;;;;;17.48;5.47;;;;;;;;;;5059554;28;20057;-74
2021/11/12 13:43:26;;;;;;;14.75;6.05;;;;;;;;;;5069050;28;20497;-74
2021/11/12 13:45:57;;;;;;;17.63;6.03;;;;;;;;;;5057422;28;20139;-74
2021/11/12 13:48:27;;;;;;;10.45;5.05;;;;;;;;;;5067989;28;20052;-74
2021/11/12 13:51:00;;;;;;;13.60;5.30;;;;;;;;;;5074702;28;20049;-84
2021/11/12 13:53:28;;;;;;;15.35;5.38;;;;;;;;;;5074364;28;20338;-84
2021/11/12 13:55:55;;;;;;;12.40;5.32;;;;;;;;;;5074418;28;20162;-84
2021/11/12 13:58:24;;;;;;;13.13;5.00;;;;;;;;;;5073514;28;20080;-84
2021/11/12 14:00:52;;;;;;;10.98;4.90;;;;;;;;;;5063959;28;20482;-84
2021/11/12 14:03:31;;;;;;;15.93;5.93;;;;;;;;;;5055288;28;20052;-84
2021/11/12 14:06:00;;;;;;;16.70;5.70;;;;;;;;;;5041948;28;20515;-84
2021/11/12 14:08:33;;;;;;;25.00;6.15;;;;;;;;;;5053385;28;20145;-84
2021/11/12 14:11:02;;;;;;;14.23;5.53;;;;;;;;;;5053558;28;20105;-84
2021/11/12 14:13:42;;;;;;;11.00;5.03;;;;;;;;;;5052814;28;20541;-84
2021/11/12 14:18:57;;;;;;;26.58;6.63;;;;;;;;;;5070115;28;20544;-84
2021/11/12 14:21:35;;;;;;;23.13;5.95;;;;;;;;;;5073552;28;20088;-84
2021/11/12 14:26:54;;;;;;;18.98;5.35;;;;;;;;;;5053503;28;20055;-84
2021/11/12 14:29:45;;;;;;;11.82;4.80;;;;;;;;;;5053251;28;20085;-84
2021/11/12 14:35:29;;;;;;;16.02;6.25;;;;;;;;;;5053186;28;20398;-84
2021/11/12 14:41:22;;;;;;;15.70;5.07;;;;;;;;;;5062437;28;20048;-84
2021/11/12 14:47:22;;;;;;;17.27;5.60;;;;;;;;;;5072271;28;20055;-84
2021/11/12 14:49:37;;;;;;;12.32;5.72;;;;;;;;;;5058769;28;20123;-84
2021/11/12 14:54:44;;;;;;;13.45;5.43;;;;;;;;;;5071718;28;20079;-84
2021/11/12 14:57:27;;;;;;;11.85;4.95;;;;;;;;;;5051284;28;20052;-84
2021/11/12 15:00:05;;;;;;;12.40;5.28;;;10.80;99.90;;;;;;5054661;28;20661;-84
2021/11/12 15:02:33;;;;;;;11.70;4.57;;;10.90;99.90;;;;;;5069203;28;20764;-84
2021/11/12 15:05:00;;;;;;;10.95;4.25;;;10.80;99.90;;;;;;5067038;28;20147;-84
2021/11/12 15:07:40;;;;;;;14.88;4.88;;;10.70;99.90;;;;;;5052533;28;20080;-84
2021/11/12 15:10:23;;;;;;;10.75;4.65;;;10.70;99.90;;;;;;5034738;28;20712;-84
2021/11/12 15:12:54;;;;;;;12.52;5.43;;;10.70;99.90;;;;;;5035486;28;20661;-83
2021/11/12 15:15:22;;;;;;;12.07;5.55;;;10.70;99.90;;;;;;5058848;28;20048;-84
2021/11/12 15:17:51;;;;;;;19.17;8.88;;;10.70;99.90;;;;;;5065566;28;20135;-85
2021/11/12 15:20:20;;;;;;;15.15;6.53;;;;;;;;;;5064299;28;20148;-83
2021/11/12 15:27:54;;;;;;;13.00;5.10;;;;;;;;;;5052536;28;20053;-84
2021/11/12 15:32:56;;;;;;;20.63;8.38;;;;;;;;;;5070671;28;20047;-84
2021/11/12 15:35:27;;;;;;;19.80;9.02;;;;;;;;;;5071960;28;20492;-83
2021/11/12 15:38:14;;;;;;;40.67;19.92;;;;;;;;;;5071706;28;20052;-84
2021/11/12 15:40:54;;;;;;;15.70;7.57;;;;;;;;;;5072418;28;20051;-84
2021/11/12 15:43:39;;;;;;;13.15;6.63;;;;;;;;;;5071825;28;20117;-85
2021/11/12 15:46:11;;;;;;;13.45;7.18;;;;;;;;;;5040519;28;20119;-84
2021/11/12 15:48:40;;;;;;;15.10;6.45;;;;;;;;;;5068412;28;20060;-83
2021/11/12 16:01:25;;;;;;;11.63;6.30;;;;;;;;;;5059151;28;20554;-84
2021/11/12 16:12:26;;;;;;;13.18;6.72;;;;;;;;;;5071773;28;20090;-84
2021/11/12 16:17:44;;;;;;;18.02;6.90;;;;;;;;;;5062945;28;20467;-84
2021/11/12 16:25:23;;;;;;;21.33;7.55;;;10.30;99.90;;;;;;5059323;28;20382;-85
2021/11/12 16:27:54;;;;;;;21.73;7.75;;;10.30;99.90;;;;;;5071159;28;20484;-84
2021/11/12 16:30:25;;;;;;;20.73;7.60;;;10.30;99.90;;;;;;5063701;28;20076;-84
2021/11/12 16:32:53;;;;;;;17.27;8.30;;;10.20;99.90;;;;;;5065097;28;20083;-84
2021/11/12 16:35:24;;;;;;;17.90;7.63;;;10.20;99.90;;;;;;5072253;28;20507;-84
2021/11/12 16:37:55;;;;;;;15.23;7.88;;;10.20;99.90;;;;;;5075388;28;20083;-84
2021/11/12 16:41:27;;;;;;;16.20;8.02;;;10.20;99.90;;;;;;5063102;28;20087;-84
2021/11/12 16:46:03;;;;;;;16.80;6.95;;;10.20;99.90;;;;;;5055017;28;20707;-83
2021/11/12 16:54:48;;;;;;;19.80;7.68;;;10.20;99.90;;;;;;5054863;28;20128;-84
2021/11/12 17:07:34;;;;;;;15.57;7.18;;;10.20;99.90;;;;;;5041947;28;20106;-84
2021/11/12 17:12:59;;;;;;;16.73;7.85;;;10.20;99.90;;;;;;5074803;28;20084;-84
2021/11/12 17:15:32;;;;;;;21.02;8.30;;;10.20;99.90;;;;;;5065614;28;20224;-84
2021/11/12 17:45:46;;;;;;;;;;;9.70;99.90;;;;;;5074770;28;20136;-83
2021/11/12 17:48:11;;;;;;;24.92;9.82;;;10.00;99.90;;;;;;5072677;28;19972;-84
2021/11/12 17:54:05;;;;;;;24.75;11.27;;;9.90;99.90;;;;;;5074021;28;20080;-83
2021/11/12 18:04:49;;;;;;;24.02;10.25;;;10.00;99.90;;;;;;5065855;28;20053;-83
2021/11/12 18:07:30;;;;;;;21.85;11.15;;;10.00;99.90;;;;;;5053478;28;20052;-83
2021/11/12 21:48:21;;;;;;;67.43;22.55;;;7.70;99.90;;;;;;5071438;28;20859;-84
2021/11/12 21:50:53;;;;;;;59.15;22.35;;;7.80;99.90;;;;;;5073051;28;20048;-84
2021/11/12 21:53:22;;;;;;;60.80;21.90;;;7.70;99.90;;;;;;5074056;28;20087;-84
2021/11/12 21:55:50;;;;;;;59.28;21.52;;;7.70;99.90;;;;;;5073447;28;20072;-84
2021/11/12 21:58:18;;;;;;;65.07;21.98;;;7.70;99.90;;;;;;5073954;28;20052;-84
2021/11/12 22:00:46;;;;;;;65.38;23.42;;;7.80;99.90;;;;;;5063956;28;20132;-84
2021/11/12 22:03:14;;;;;;;70.72;24.52;;;7.80;99.90;;;;;;5073390;28;20076;-84
2021/11/12 22:05:42;;;;;;;70.05;23.98;;;7.80;99.90;;;;;;5073209;28;20090;-84
2021/11/12 22:08:09;;;;;;;71.30;24.90;;;7.80;99.90;;;;;;5073664;28;20155;-84
2021/11/12 22:10:37;;;;;;;65.22;23.10;;;7.90;99.90;;;;;;5072912;28;20386;-84
2021/11/12 22:13:04;;;;;;;60.03;23.38;;;7.80;99.90;;;;;;5073521;28;20667;-84
2021/11/12 22:15:31;;;;;;;68.95;24.15;;;7.80;99.90;;;;;;5073481;28;20128;-85
2021/11/12 22:17:57;;;;;;;72.38;24.73;;;7.70;99.90;;;;;;5071763;28;20092;-85
2021/11/12 22:20:24;;;;;;;65.15;24.63;;;7.60;99.90;;;;;;5072711;28;20553;-84
2021/11/12 22:22:51;;;;;;;65.13;24.00;;;7.60;99.90;;;;;;5072971;28;20052;-86
2021/11/12 22:25:18;;;;;;;68.25;23.27;;;7.60;99.90;;;;;;5071965;28;20091;-84
2021/11/12 22:27:45;;;;;;;81.30;25.45;;;7.60;99.90;;;;;;5072468;28;20128;-85
2021/11/12 22:30:13;;;;;;;66.57;24.85;;;7.60;99.90;;;;;;5053358;28;20156;-84
2021/11/12 22:32:41;;;;;;;78.70;25.80;;;7.60;99.90;;;;;;5070079;28;20076;-85
2021/11/12 22:35:08;;;;;;;67.00;25.67;;;7.60;99.90;;;;;;5058749;28;20080;-84
2021/11/12 22:37:37;;;;;;;74.82;25.48;;;7.60;99.90;;;;;;5061011;28;20152;-84
2021/11/12 22:40:05;;;;;;;71.68;26.67;;;7.60;99.90;;;;;;5052698;28;20080;-84
2021/11/12 22:42:32;;;;;;;68.68;25.50;;;7.60;99.90;;;;;;5059189;28;20048;-84
2021/11/12 22:45:00;;;;;;;82.68;27.75;;;7.60;99.90;;;;;;5069057;28;20135;-85
2021/11/12 22:47:27;;;;;;;72.30;24.35;;;7.60;99.90;;;;;;5063568;28;20048;-84
2021/11/12 22:49:54;;;;;;;80.55;25.73;;;7.70;99.90;;;;;;5072587;28;20052;-84
2021/11/12 22:52:21;;;;;;;69.75;25.80;;;7.70;99.90;;;;;;5072956;28;20044;-84
2021/11/12 22:54:48;;;;;;;73.63;26.75;;;7.70;99.90;;;;;;5069349;28;20048;-85
2021/11/12 22:57:16;;;;;;;64.97;25.50;;;7.70;99.90;;;;;;5052711;28;21001;-85
2021/11/12 22:59:43;;;;;;;69.20;25.35;;;7.70;99.90;;;;;;5052393;28;20140;-84
2021/11/12 23:02:10;;;;;;;82.13;29.05;;;7.70;99.90;;;;;;5064852;28;20132;-84
2021/11/12 23:04:37;;;;;;;72.55;26.10;;;7.60;99.90;;;;;;5069143;28;20106;-84
2021/11/12 23:07:04;;;;;;;72.10;25.20;;;7.60;99.90;;;;;;5052808;28;20049;-84
2021/11/12 23:09:32;;;;;;;73.35;26.50;;;7.60;99.90;;;;;;5053433;28;20091;-84
2021/11/12 23:11:59;;;;;;;74.80;26.13;;;7.60;99.90;;;;;;5053282;28;20132;-85
2021/11/12 23:14:26;;;;;;;73.70;25.75;;;7.50;99.90;;;;;;5052755;28;20152;-84
2021/11/12 23:16:53;;;;;;;80.78;27.77;;;7.60;99.90;;;;;;5072488;28;20123;-84
2021/11/12 23:19:20;;;;;;;81.05;27.90;;;7.60;99.90;;;;;;5054244;28;20060;-84
2021/11/12 23:21:47;;;;;;;83.22;29.15;;;7.60;99.90;;;;;;5072510;28;20131;-84
2021/11/12 23:24:14;;;;;;;81.95;28.23;;;7.60;99.90;;;;;;5072048;28;20088;-84
2021/11/12 23:26:41;;;;;;;86.93;27.88;;;7.60;99.90;;;;;;5072543;28;20048;-84
2021/11/12 23:29:08;;;;;;;82.57;28.08;;;7.70;99.90;;;;;;5070189;28;20126;-84
2021/11/12 23:31:35;;;;;;;83.88;28.15;;;7.60;99.90;;;;;;5060154;28;20040;-84
2021/11/12 23:34:04;;;;;;;94.20;28.98;;;7.60;99.90;;;;;;5072086;28;20052;-84
2021/11/12 23:36:31;;;;;;;89.60;27.80;;;7.60;99.90;;;;;;5072090;28;20083;-84
2021/11/12 23:38:58;;;;;;;87.53;28.10;;;7.60;99.90;;;;;;5059760;28;20726;-85
2021/11/12 23:41:25;;;;;;;88.72;29.83;;;7.50;99.90;;;;;;5052524;28;20091;-85
2021/11/12 23:43:51;;;;;;;86.70;28.08;;;7.60;99.90;;;;;;5052020;28;20136;-84
2021/11/12 23:46:18;;;;;;;88.80;30.27;;;7.60;99.90;;;;;;5052189;28;20092;-84